createdAt,value
2023-01-02T00:01:05.304Z,12.20
2023-01-02T00:03:36.071Z,12.10
2023-01-02T00:06:05.826Z,12.10
2023-01-02T00:08:35.276Z,12.10
2023-01-02T00:11:04.318Z,12.10
2023-01-02T00:13:33.458Z,12.10
2023-01-02T00:16:03.107Z,12.10
2023-01-02T00:18:32.256Z,12.10
2023-01-02T00:21:05.590Z,12.00
2023-01-02T00:23:35.170Z,12.10
2023-01-02T00:26:04.270Z,12.00
2023-01-02T00:28:33.906Z,12.00
2023-01-02T00:31:08.329Z,12.00
2023-01-02T00:33:38.495Z,12.10
2023-01-02T00:36:11.435Z,12.00
2023-01-02T00:38:41.232Z,12.00
2023-01-02T00:41:10.652Z,12.10
2023-01-02T00:43:40.282Z,12.10
2023-01-02T00:46:11.923Z,12.10
2023-01-02T00:48:41.657Z,12.10
2023-01-02T00:51:12.319Z,12.10
2023-01-02T00:53:41.415Z,12.10
2023-01-02T00:56:10.503Z,12.10
2023-01-02T00:58:39.633Z,12.10
2023-01-02T01:01:08.810Z,12.10
2023-01-02T01:03:38.860Z,12.10
2023-01-02T01:06:09.445Z,12.10
2023-01-02T01:08:40.805Z,12.10
2023-01-02T01:11:12.328Z,12.10
2023-01-02T01:13:41.888Z,12.20
2023-01-02T01:16:13.223Z,12.20
2023-01-02T01:18:42.911Z,12.20
2023-01-02T01:21:13.271Z,12.10
2023-01-02T01:23:43.828Z,12.20
2023-01-02T01:26:14.799Z,12.10
2023-01-02T01:28:43.944Z,12.20
2023-01-02T01:31:16.489Z,12.20
2023-01-02T01:33:46.325Z,12.20
2023-01-02T01:36:17.681Z,12.20
2023-01-02T01:38:48.741Z,12.20
2023-01-02T01:41:20.150Z,12.20
2023-01-02T01:43:51.587Z,12.20
2023-01-02T01:46:27.164Z,12.20
2023-01-02T01:49:02.891Z,12.20
2023-01-02T01:51:36.851Z,12.20
2023-01-02T01:54:10.775Z,12.20
2023-01-02T01:56:44.009Z,12.30
2023-01-02T01:59:13.863Z,12.30
2023-01-02T02:01:44.774Z,12.20
2023-01-02T02:04:16.018Z,12.20
2023-01-02T02:06:45.373Z,12.20
2023-01-02T02:09:19.372Z,12.10
2023-01-02T02:11:49.463Z,12.20
2023-01-02T02:14:18.724Z,12.20
2023-01-02T02:16:54.977Z,12.20
2023-01-02T02:20:08.720Z,12.20
2023-01-02T02:23:08.181Z,12.30
2023-01-02T02:25:53.442Z,12.30
2023-01-02T02:28:46.631Z,12.30
2023-01-02T02:31:22.055Z,12.20
2023-01-02T02:33:57.689Z,12.30
2023-01-02T02:36:34.534Z,12.30
2023-01-02T02:39:12.487Z,12.30
2023-01-02T02:41:47.267Z,12.30
2023-01-02T02:44:25.753Z,12.30
2023-01-02T02:47:01.989Z,12.20
2023-01-02T02:49:43.721Z,12.20
2023-01-02T02:52:20.028Z,12.20
2023-01-02T02:54:55.502Z,12.20
2023-01-02T02:57:26.697Z,12.10
2023-01-02T02:59:55.946Z,12.10
2023-01-02T03:02:26.794Z,12.10
2023-01-02T03:04:59.956Z,12.10
2023-01-02T03:07:33.918Z,12.10
2023-01-02T03:10:16.586Z,12.10
2023-01-02T03:12:52.762Z,12.00
2023-01-02T03:15:30.265Z,12.00
2023-01-02T03:18:09.047Z,11.90
2023-01-02T03:20:42.876Z,12.00
2023-01-02T03:23:21.271Z,12.00
2023-01-02T03:25:52.351Z,12.10
2023-01-02T03:28:25.082Z,12.10
2023-01-02T03:30:58.855Z,12.00
2023-01-02T03:33:31.919Z,12.00
2023-01-02T03:36:04.922Z,11.90
2023-01-02T03:38:38.228Z,11.90
2023-01-02T03:41:11.117Z,11.90
2023-01-02T03:43:43.125Z,12.00
2023-01-02T03:46:19.111Z,12.00
2023-01-02T03:48:55.009Z,12.00
2023-01-02T03:51:24.243Z,12.00
2023-01-02T03:53:53.998Z,12.00
2023-01-02T03:56:28.687Z,11.90
2023-01-02T03:59:01.613Z,11.90
2023-01-02T04:01:37.643Z,11.80
2023-01-02T04:04:14.205Z,11.80
2023-01-02T04:06:49.268Z,11.80
2023-01-02T04:09:22.413Z,11.80
2023-01-02T04:11:56.605Z,11.80
2023-01-02T04:14:31.974Z,11.80
2023-01-02T04:17:03.094Z,11.80
2023-01-02T04:19:36.961Z,11.80
2023-01-02T04:22:12.313Z,11.80
2023-01-02T04:24:49.059Z,11.80
2023-01-02T04:27:23.556Z,11.90
2023-01-02T04:29:52.864Z,11.80
2023-01-02T04:32:27.036Z,11.80
2023-01-02T04:34:59.340Z,11.80
2023-01-02T04:37:30.440Z,11.80
2023-01-02T04:40:04.295Z,11.80
2023-01-02T04:42:33.444Z,11.80
2023-01-02T04:45:02.945Z,11.80
2023-01-02T04:47:32.077Z,11.80
2023-01-02T04:50:03.003Z,11.90
2023-01-02T04:52:37.029Z,11.90
2023-01-02T04:55:08.543Z,11.90
2023-01-02T04:57:37.753Z,12.00
2023-01-02T05:00:09.179Z,11.90
2023-01-02T05:02:38.876Z,11.80
2023-01-02T05:05:10.735Z,11.80
2023-01-02T05:07:40.277Z,11.70
2023-01-02T05:10:10.526Z,11.50
2023-01-02T05:12:40.462Z,11.50
2023-01-02T05:15:12.236Z,11.50
2023-01-02T05:17:43.203Z,11.40
2023-01-02T05:20:14.902Z,11.40
2023-01-02T05:23:03.201Z,11.40
2023-01-02T05:25:35.111Z,11.30
2023-01-02T05:28:04.750Z,11.30
2023-01-02T05:30:33.907Z,11.30
2023-01-02T05:33:03.449Z,11.20
2023-01-02T05:35:35.050Z,11.20
2023-01-02T05:38:04.841Z,11.20
2023-01-02T05:40:33.993Z,11.20
2023-01-02T05:43:03.498Z,11.00
2023-01-02T05:45:32.961Z,11.00
2023-01-02T05:48:02.125Z,10.90
2023-01-02T05:50:31.382Z,10.90
2023-01-02T05:53:02.022Z,10.90
2023-01-02T05:55:31.166Z,10.80
2023-01-02T05:58:02.591Z,10.80
2023-01-02T06:00:31.726Z,10.80
2023-01-02T06:03:01.001Z,10.80
2023-01-02T06:05:30.421Z,10.60
2023-01-02T06:08:00.998Z,10.70
2023-01-02T06:10:30.563Z,10.60
2023-01-02T06:12:59.649Z,10.60
2023-01-02T06:15:28.757Z,10.60
2023-01-02T06:17:57.852Z,10.60
2023-01-02T06:20:27.000Z,10.50
2023-01-02T06:22:56.811Z,10.40
2023-01-02T06:25:27.318Z,10.30
2023-01-02T06:27:56.419Z,10.30
2023-01-02T06:30:25.555Z,10.30
2023-01-02T06:32:54.651Z,10.30
2023-01-02T06:35:23.757Z,10.20
2023-01-02T06:37:52.874Z,10.20
2023-01-02T06:40:21.960Z,10.00
2023-01-02T06:42:57.115Z,10.00
2023-01-02T06:45:29.404Z,9.90
2023-01-02T06:48:00.663Z,10.00
2023-01-02T06:50:34.942Z,9.90
2023-01-02T06:53:04.475Z,9.90
2023-01-02T06:55:33.816Z,9.90
2023-01-02T06:58:09.384Z,10.00
2023-01-02T07:00:41.571Z,10.00
2023-01-02T07:03:10.685Z,9.90
2023-01-02T07:05:39.814Z,9.80
2023-01-02T07:08:09.445Z,9.90
2023-01-02T07:10:38.571Z,9.90
2023-01-02T07:13:09.609Z,10.00
2023-01-02T07:15:38.681Z,10.00
2023-01-02T07:18:08.236Z,10.00
2023-01-02T07:20:37.646Z,10.10
2023-01-02T07:23:07.158Z,10.10
2023-01-02T07:25:42.425Z,10.20
2023-01-02T07:28:14.922Z,10.30
2023-01-02T07:30:44.171Z,10.20
2023-01-02T07:33:13.402Z,10.30
2023-01-02T07:35:42.593Z,10.30
2023-01-02T07:38:12.292Z,10.30
2023-01-02T07:40:41.460Z,10.40
2023-01-02T07:43:10.552Z,10.50
2023-01-02T07:45:45.031Z,10.50
2023-01-02T07:48:18.879Z,10.50
2023-01-02T07:50:48.432Z,10.50
2023-01-02T07:53:17.798Z,10.60
2023-01-02T07:55:54.935Z,10.60
2023-01-02T07:58:24.607Z,10.60
2023-01-02T08:01:03.242Z,10.60
2023-01-02T08:03:34.681Z,10.70
2023-01-02T08:06:08.760Z,10.70
2023-01-02T08:08:38.491Z,10.70
2023-01-02T08:11:08.565Z,10.80
2023-01-02T08:13:37.960Z,10.90
2023-01-02T08:16:11.099Z,10.90
2023-01-02T08:18:41.222Z,10.90
2023-01-02T08:21:11.052Z,11.00
2023-01-02T08:23:40.849Z,11.10
2023-01-02T08:26:12.507Z,11.20
2023-01-02T08:28:42.616Z,11.40
2023-01-02T08:31:15.135Z,11.50
2023-01-02T08:33:44.541Z,11.60
2023-01-02T08:36:14.872Z,11.70
2023-01-02T08:38:44.563Z,11.70
2023-01-02T08:41:13.718Z,11.80
2023-01-02T08:43:43.329Z,11.80
2023-01-02T08:46:13.962Z,11.80
2023-01-02T08:48:43.633Z,11.80
2023-01-02T08:51:13.082Z,11.90
2023-01-02T08:53:42.337Z,12.10
2023-01-02T08:56:25.778Z,12.20
2023-01-02T08:58:56.264Z,12.40
2023-01-02T09:01:28.670Z,12.60
2023-01-02T09:03:58.515Z,12.60
2023-01-02T09:06:29.606Z,12.60
2023-01-02T09:09:01.383Z,12.60
2023-01-02T09:11:35.011Z,12.60
2023-01-02T09:14:05.653Z,12.60
2023-01-02T09:16:36.465Z,12.60
2023-01-02T09:19:06.171Z,12.60
2023-01-02T09:21:35.631Z,12.70
2023-01-02T09:24:05.066Z,12.70
2023-01-02T09:26:34.253Z,12.70
2023-01-02T09:29:03.408Z,12.60
2023-01-02T09:31:32.639Z,12.70
2023-01-02T09:34:03.554Z,12.80
2023-01-02T09:36:33.270Z,13.00
2023-01-02T09:39:03.312Z,13.20
2023-01-02T09:41:38.565Z,13.30
2023-01-02T09:44:14.940Z,13.50
2023-01-02T09:46:49.591Z,13.60
2023-01-02T09:49:22.432Z,13.70
2023-01-02T09:51:51.766Z,13.80
2023-01-02T09:54:25.758Z,13.80
2023-01-02T09:57:10.608Z,14.00
2023-01-02T09:59:48.840Z,14.10
2023-01-02T10:02:31.963Z,14.10
2023-01-02T10:05:21.416Z,14.10
2023-01-02T10:07:57.213Z,14.00
2023-01-02T10:10:30.752Z,13.90
2023-01-02T10:13:07.080Z,14.00
2023-01-02T10:16:01.914Z,14.00
2023-01-02T10:18:37.704Z,14.00
2023-01-02T10:21:14.435Z,14.00
2023-01-02T10:23:49.886Z,13.90
2023-01-02T10:26:21.859Z,13.90
2023-01-02T10:28:54.321Z,13.80
2023-01-02T10:31:29.243Z,13.80
2023-01-02T10:34:00.901Z,13.80
2023-01-02T10:36:33.886Z,13.80
2023-01-02T10:39:05.539Z,13.80
2023-01-02T10:41:37.119Z,13.80
2023-01-02T10:44:10.129Z,13.80
2023-01-02T10:46:41.735Z,13.80
2023-01-02T10:49:13.482Z,13.90
2023-01-02T10:51:49.865Z,13.80
2023-01-02T10:54:19.268Z,13.80
2023-01-02T10:56:51.927Z,13.90
2023-01-02T10:59:24.078Z,13.90
2023-01-02T11:01:56.306Z,13.90
2023-01-02T11:04:27.550Z,13.80
2023-01-02T11:07:00.579Z,13.90
2023-01-02T11:09:31.652Z,13.90
2023-01-02T11:12:11.612Z,13.80
2023-01-02T11:14:41.678Z,13.70
2023-01-02T11:17:16.000Z,13.70
2023-01-02T11:19:47.048Z,13.70
2023-01-02T11:22:20.213Z,13.60
2023-01-02T11:25:08.898Z,13.60
2023-01-02T11:27:44.930Z,13.60
2023-01-02T11:30:30.678Z,13.60
2023-01-02T11:33:08.106Z,13.70
2023-01-02T11:35:45.110Z,13.80
2023-01-02T11:38:28.812Z,13.70
2023-01-02T11:41:02.171Z,13.70
2023-01-02T11:43:49.876Z,13.70
2023-01-02T11:46:30.250Z,13.70
2023-01-02T11:49:07.087Z,13.80
2023-01-02T11:51:40.159Z,13.80
2023-01-02T11:54:15.370Z,13.90
2023-01-02T11:56:47.084Z,14.00
2023-01-02T11:59:20.508Z,14.00
2023-01-02T12:01:59.505Z,14.00
2023-01-02T12:04:28.967Z,13.90
2023-01-02T12:07:19.649Z,13.90
2023-01-02T12:10:00.724Z,13.90
2023-01-02T12:12:44.057Z,13.90
2023-01-02T12:15:52.505Z,14.00
2023-01-02T12:18:35.987Z,14.00
2023-01-02T12:21:16.331Z,13.90
2023-01-02T12:24:21.122Z,14.00
2023-01-02T12:27:00.823Z,14.10
2023-01-02T12:29:47.924Z,14.10
2023-01-02T12:32:56.572Z,14.20
2023-01-02T12:35:48.227Z,14.20
2023-01-02T12:38:30.037Z,14.30
2023-01-02T12:41:15.430Z,14.40
2023-01-02T12:44:08.094Z,14.50
2023-01-02T12:46:52.229Z,14.50
2023-01-02T12:49:57.061Z,14.50
2023-01-02T12:52:39.475Z,14.60
2023-01-02T12:55:21.775Z,14.50
2023-01-02T12:57:57.108Z,14.60
2023-01-02T13:00:51.304Z,14.70
2023-01-02T13:03:49.209Z,14.70
2023-01-02T13:06:45.190Z,14.70
2023-01-02T13:09:22.343Z,14.80
2023-01-02T13:12:02.492Z,14.90
2023-01-02T13:14:38.387Z,15.10
2023-01-02T13:17:33.389Z,15.00
2023-01-02T13:20:10.434Z,15.10
2023-01-02T13:22:50.221Z,15.20
2023-01-02T13:25:23.906Z,15.20
2023-01-02T13:27:55.147Z,15.20
2023-01-02T13:30:46.507Z,15.20
2023-01-02T13:33:33.672Z,15.20
2023-01-02T13:36:05.353Z,15.20
2023-01-02T13:38:37.634Z,15.10
2023-01-02T13:41:06.973Z,15.10
2023-01-02T13:43:36.411Z,15.20
2023-01-02T13:46:05.539Z,15.10
2023-01-02T13:48:41.008Z,15.10
2023-01-02T13:51:17.343Z,15.20
2023-01-02T13:53:50.486Z,15.20
2023-01-02T13:56:20.943Z,15.20
2023-01-02T13:58:59.423Z,15.10
2023-01-02T14:02:03.407Z,15.20
2023-01-02T14:04:39.307Z,15.20
2023-01-02T14:07:41.061Z,15.10
2023-01-02T14:10:22.076Z,15.00
2023-01-02T14:12:55.907Z,15.00
2023-01-02T14:15:28.132Z,15.00
2023-01-02T14:18:05.251Z,14.90
2023-01-02T14:20:38.787Z,14.90
2023-01-02T14:23:11.136Z,14.80
2023-01-02T14:25:50.436Z,14.80
2023-01-02T14:28:25.186Z,14.80
2023-01-02T14:30:55.617Z,14.80
2023-01-02T14:33:33.760Z,14.70
2023-01-02T14:36:08.030Z,14.70
2023-01-02T14:38:42.271Z,14.60
2023-01-02T14:42:10.211Z,14.40
2023-01-02T14:44:42.579Z,14.30
2023-01-02T14:47:17.102Z,14.20
2023-01-02T14:49:51.998Z,14.30
2023-01-02T14:52:28.910Z,14.30
2023-01-02T14:55:04.157Z,14.30
2023-01-02T14:57:36.102Z,14.30
2023-01-02T15:00:14.558Z,14.20
2023-01-02T15:02:47.913Z,14.10
2023-01-02T15:05:22.017Z,14.10
2023-01-02T15:07:57.382Z,14.10
2023-01-02T15:10:26.753Z,14.10
2023-01-02T15:13:04.328Z,14.00
2023-01-02T15:15:38.337Z,13.90
2023-01-02T15:18:13.165Z,13.70
2023-01-02T15:20:42.388Z,13.60
2023-01-02T15:23:21.505Z,13.50
2023-01-02T15:25:50.695Z,13.40
2023-01-02T15:28:28.033Z,13.20
2023-01-02T15:31:02.498Z,12.90
2023-01-02T15:33:33.403Z,12.90
2023-01-02T15:36:05.021Z,12.90
2023-01-02T15:38:36.033Z,12.80
2023-01-02T15:41:06.456Z,12.90
2023-01-02T15:43:54.781Z,12.90
2023-01-02T15:46:24.163Z,12.90
2023-01-02T15:48:54.327Z,12.80
2023-01-02T15:51:40.221Z,12.70
2023-01-02T15:54:16.068Z,12.70
2023-01-02T15:56:45.302Z,12.70
2023-01-02T15:59:28.562Z,12.60
2023-01-02T16:01:57.970Z,12.60
2023-01-02T16:04:29.026Z,12.70
2023-01-02T16:07:00.120Z,12.70
2023-01-02T16:09:33.198Z,12.70
2023-01-02T16:12:04.427Z,12.70
2023-01-02T16:14:39.098Z,12.70
2023-01-02T16:17:18.094Z,12.70
2023-01-02T16:19:58.181Z,12.70
2023-01-02T16:22:29.928Z,12.70
2023-01-02T16:25:06.400Z,12.70
2023-01-02T16:27:41.436Z,12.70
2023-01-02T16:30:28.658Z,12.70
2023-01-02T16:32:58.538Z,12.70
2023-01-02T16:35:30.025Z,12.50
2023-01-02T16:37:59.996Z,12.50
2023-01-02T16:41:00.207Z,12.50
2023-01-02T16:43:33.376Z,12.50
2023-01-02T16:46:04.884Z,12.50
2023-01-02T16:48:39.732Z,12.60
2023-01-02T16:51:09.042Z,12.50
2023-01-02T16:53:38.718Z,12.50
2023-01-02T16:56:11.887Z,12.40
2023-01-02T16:58:41.527Z,12.50
2023-01-02T17:01:13.442Z,12.50
2023-01-02T17:03:42.944Z,12.50
2023-01-02T17:06:14.407Z,12.50
2023-01-02T17:08:44.630Z,12.40
2023-01-02T17:11:17.735Z,12.40
2023-01-02T17:13:47.340Z,12.40
2023-01-02T17:16:16.888Z,12.40
2023-01-02T17:18:46.192Z,12.30
2023-01-02T17:21:15.513Z,12.30
2023-01-02T17:23:44.754Z,12.30
2023-01-02T17:26:16.138Z,12.20
2023-01-02T17:28:45.280Z,12.20
2023-01-02T17:31:19.891Z,12.30
2023-01-02T17:33:51.931Z,12.30
2023-01-02T17:36:21.182Z,12.30
2023-01-02T17:38:50.364Z,12.30
2023-01-02T17:41:21.641Z,12.30
2023-01-02T17:44:02.110Z,12.30
2023-01-02T17:49:22.943Z,12.20
2023-01-02T17:51:52.196Z,12.20
2023-01-02T17:54:21.511Z,12.20
2023-01-02T17:56:52.041Z,12.20
2023-01-02T17:59:21.534Z,12.20
2023-01-02T18:01:51.269Z,12.20
2023-01-02T18:04:20.721Z,12.20
2023-01-02T18:06:49.942Z,12.10
2023-01-02T18:09:20.084Z,12.10
2023-01-02T18:11:49.232Z,12.10
2023-01-02T18:14:25.073Z,12.10
2023-01-02T18:16:57.459Z,12.10
2023-01-02T18:19:29.083Z,12.00
2023-01-02T18:21:58.651Z,12.10
2023-01-02T18:24:30.158Z,12.10
2023-01-02T18:27:03.669Z,12.00
2023-01-02T18:29:34.550Z,12.00
2023-01-02T18:32:09.942Z,11.90
2023-01-02T18:34:52.427Z,11.90
2023-01-02T18:37:28.633Z,11.90
2023-01-02T18:39:58.721Z,11.90
2023-01-02T18:42:30.480Z,11.90
2023-01-02T18:45:03.461Z,11.90
2023-01-02T18:47:35.975Z,11.90
2023-01-02T18:50:32.991Z,11.90
2023-01-02T18:53:16.250Z,11.90
2023-01-02T18:55:46.263Z,11.80
2023-01-02T18:58:47.409Z,11.80
2023-01-02T19:01:29.563Z,11.80
2023-01-02T19:04:26.232Z,11.80
2023-01-02T19:07:01.223Z,11.80
2023-01-02T19:09:33.636Z,11.70
2023-01-02T19:12:36.101Z,11.70
2023-01-02T19:15:33.691Z,11.70
2023-01-02T19:18:27.905Z,11.60
2023-01-02T19:21:05.528Z,11.60
2023-01-02T19:23:46.135Z,11.70
2023-01-02T19:26:21.616Z,11.60
2023-01-02T19:28:58.825Z,11.60
2023-01-02T19:31:32.506Z,11.60
2023-01-02T19:34:04.356Z,11.50
2023-01-02T19:36:41.291Z,11.50
2023-01-02T19:39:26.188Z,11.60
2023-01-02T19:42:13.634Z,11.50
2023-01-02T19:44:43.204Z,11.50
2023-01-02T19:47:13.041Z,11.40
2023-01-02T19:49:45.446Z,11.50
2023-01-02T19:52:16.288Z,11.50
2023-01-02T19:54:46.122Z,11.40
2023-01-02T19:57:18.051Z,11.50
2023-01-02T19:59:49.338Z,11.50
2023-01-02T20:02:23.039Z,11.60
2023-01-02T20:04:56.363Z,11.50
2023-01-02T20:07:28.684Z,11.50
2023-01-02T20:09:58.670Z,11.50
2023-01-02T20:12:40.659Z,11.60
2023-01-02T20:15:13.107Z,11.60
2023-01-02T20:17:43.162Z,11.50
2023-01-02T20:20:16.609Z,11.50
2023-01-02T20:22:47.353Z,11.60
2023-01-02T20:25:19.762Z,11.60
2023-01-02T20:27:50.121Z,11.70
2023-01-02T20:30:24.301Z,11.70
2023-01-02T20:32:55.125Z,11.70
2023-01-02T20:35:27.348Z,11.60
2023-01-02T20:37:58.194Z,11.70
2023-01-02T20:40:29.804Z,11.70
2023-01-02T20:43:00.857Z,11.80
2023-01-02T20:45:31.210Z,11.80
2023-01-02T20:48:02.354Z,11.80
2023-01-02T20:50:35.045Z,11.80
2023-01-02T20:53:06.902Z,11.80
2023-01-02T20:55:39.412Z,11.90
2023-01-02T20:58:10.555Z,11.90
2023-01-02T21:00:40.240Z,11.90
2023-01-02T21:03:10.341Z,11.90
2023-01-02T21:05:42.187Z,11.90
2023-01-02T21:08:11.651Z,12.00
2023-01-02T21:10:42.361Z,12.10
2023-01-02T21:13:12.811Z,12.20
2023-01-02T21:15:52.105Z,12.30
2023-01-02T21:18:23.381Z,12.30
2023-01-02T21:20:55.872Z,12.30
2023-01-02T21:23:26.937Z,12.30
2023-01-02T21:25:58.117Z,12.30
2023-01-02T21:28:28.010Z,12.30
2023-01-02T21:30:57.767Z,12.30
2023-01-02T21:33:28.478Z,12.30
2023-01-02T21:36:00.535Z,12.30
2023-01-02T21:38:30.454Z,12.30
2023-01-02T21:41:21.837Z,12.30
2023-01-02T21:43:51.197Z,12.30
2023-01-02T21:46:20.401Z,12.30
2023-01-02T21:48:49.783Z,12.30
2023-01-02T21:51:20.360Z,12.30
2023-01-02T21:53:50.041Z,12.40
2023-01-02T21:56:19.232Z,12.30
2023-01-02T21:58:48.898Z,12.30
2023-01-02T22:01:18.090Z,12.30
2023-01-02T22:03:47.396Z,12.30
2023-01-02T22:06:18.511Z,12.30
2023-01-02T22:08:49.170Z,12.30
2023-01-02T22:11:37.700Z,12.30
2023-01-02T22:14:07.091Z,12.30
2023-01-02T22:16:36.402Z,12.30
2023-01-02T22:19:06.001Z,12.30
2023-01-02T22:21:35.607Z,12.30
2023-01-02T22:24:06.696Z,12.30
2023-01-02T22:26:37.350Z,12.30
2023-01-02T22:29:07.575Z,12.40
2023-01-02T22:31:36.890Z,12.30
2023-01-02T22:34:06.745Z,12.40
2023-01-02T22:36:36.369Z,12.30
2023-01-02T22:39:27.520Z,12.30
2023-01-02T22:42:34.080Z,12.30
2023-01-02T22:45:03.947Z,12.30
2023-01-02T22:47:36.658Z,12.30
2023-01-02T22:50:12.071Z,12.30
2023-01-02T22:52:41.668Z,12.30
2023-01-02T22:55:17.746Z,12.30
2023-01-02T22:57:51.553Z,12.30
2023-01-02T23:00:23.621Z,12.20
2023-01-02T23:02:52.790Z,12.10
2023-01-02T23:05:23.141Z,12.10
2023-01-02T23:07:52.519Z,12.20
2023-01-02T23:10:23.273Z,12.20
2023-01-02T23:12:52.535Z,12.20
2023-01-02T23:15:21.977Z,12.20
2023-01-02T23:18:08.458Z,12.10
2023-01-02T23:20:37.715Z,12.10
2023-01-02T23:23:07.784Z,12.10
2023-01-02T23:25:42.345Z,12.00
2023-01-02T23:28:20.515Z,12.00
2023-01-02T23:31:00.672Z,12.00
2023-01-02T23:33:29.894Z,12.00
2023-01-02T23:35:59.315Z,12.00
2023-01-02T23:38:28.714Z,12.00
2023-01-02T23:40:59.481Z,12.00
2023-01-02T23:43:28.720Z,12.00
2023-01-02T23:45:58.176Z,12.00
2023-01-02T23:48:27.454Z,11.90
2023-01-02T23:51:00.779Z,12.00
2023-01-02T23:53:30.905Z,12.00
2023-01-02T23:56:01.768Z,12.00
2023-01-02T23:58:31.316Z,11.90
